Center, South Dakota
Current Conditions -  °F | °C
As of 2:35 PM on Wednesday 26 Nov 2014 (Local Time) from KMDS Reporting Station
Light Rain Light Rain  
Wind Chill:   Ceiling: 1400
Heat Index: 16°   Visibility: 10mi
Dew Point: 10°   Wind: 17mph
Humidity: 79%   Direction: 350°N
Pressure: 30.3"   Gusts: 23mph
Location:  43.7599°N, 97.3683°W
Report Text: KMDS 262035Z AUTO 35015G20KT 10SM -RA BKN014 M09/M12 A3030 RMK AO2
Loading
Personal Weather Stations






























Interactive Weather Map New forecast layout! Learn more

10-Day Weather Forecast

Advertisements
Track Severe Weather on mobile